sensor_id;sensor_type;location;lat;lon;timestamp;P1;durP1;ratioP1;P2;durP2;ratioP2
40252;SDS011;25972;51.854;4.534;2023-07-13T00:00:00;8.82;;;1.70;;
40252;SDS011;25972;51.854;4.534;2023-07-13T00:02:31;8.20;;;1.45;;
40252;SDS011;25972;51.854;4.534;2023-07-13T00:04:58;7.55;;;2.03;;
40252;SDS011;25972;51.854;4.534;2023-07-13T00:07:25;9.40;;;1.65;;
40252;SDS011;25972;51.854;4.534;2023-07-13T00:09:51;7.57;;;2.33;;
40252;SDS011;25972;51.854;4.534;2023-07-13T00:12:27;9.90;;;1.60;;
40252;SDS011;25972;51.854;4.534;2023-07-13T00:14:55;9.38;;;2.00;;
40252;SDS011;25972;51.854;4.534;2023-07-13T00:17:21;18.05;;;2.35;;
40252;SDS011;25972;51.854;4.534;2023-07-13T00:19:47;9.60;;;1.90;;
40252;SDS011;25972;51.854;4.534;2023-07-13T00:22:13;10.90;;;2.00;;
40252;SDS011;25972;51.854;4.534;2023-07-13T00:24:41;5.82;;;1.63;;
40252;SDS011;25972;51.854;4.534;2023-07-13T00:27:07;6.30;;;1.58;;
40252;SDS011;25972;51.854;4.534;2023-07-13T00:29:34;6.22;;;1.70;;
40252;SDS011;25972;51.854;4.534;2023-07-13T00:32:01;12.02;;;1.98;;
40252;SDS011;25972;51.854;4.534;2023-07-13T00:34:27;11.38;;;2.03;;
40252;SDS011;25972;51.854;4.534;2023-07-13T00:36:53;10.63;;;2.00;;
40252;SDS011;25972;51.854;4.534;2023-07-13T00:39:19;9.05;;;2.10;;
40252;SDS011;25972;51.854;4.534;2023-07-13T00:41:47;10.88;;;1.70;;
40252;SDS011;25972;51.854;4.534;2023-07-13T00:44:13;14.27;;;1.95;;
40252;SDS011;25972;51.854;4.534;2023-07-13T00:46:40;9.50;;;2.05;;
40252;SDS011;25972;51.854;4.534;2023-07-13T00:49:07;6.53;;;1.63;;
40252;SDS011;25972;51.854;4.534;2023-07-13T00:51:44;5.72;;;1.95;;
40252;SDS011;25972;51.854;4.534;2023-07-13T00:54:14;5.70;;;1.20;;
40252;SDS011;25972;51.854;4.534;2023-07-13T00:56:43;6.70;;;1.83;;
40252;SDS011;25972;51.854;4.534;2023-07-13T00:59:13;10.85;;;2.13;;
40252;SDS011;25972;51.854;4.534;2023-07-13T01:01:42;9.15;;;1.67;;
40252;SDS011;25972;51.854;4.534;2023-07-13T01:04:08;6.05;;;1.83;;
40252;SDS011;25972;51.854;4.534;2023-07-13T01:06:35;7.68;;;1.60;;
40252;SDS011;25972;51.854;4.534;2023-07-13T01:09:02;12.27;;;2.40;;
40252;SDS011;25972;51.854;4.534;2023-07-13T01:11:30;12.25;;;1.60;;
40252;SDS011;25972;51.854;4.534;2023-07-13T01:13:56;11.77;;;2.20;;
40252;SDS011;25972;51.854;4.534;2023-07-13T01:16:25;11.10;;;1.67;;
40252;SDS011;25972;51.854;4.534;2023-07-13T01:18:55;1.33;;;0.68;;
40252;SDS011;25972;51.854;4.534;2023-07-13T01:21:28;7.57;;;1.70;;
40252;SDS011;25972;51.854;4.534;2023-07-13T01:23:58;7.43;;;1.43;;
40252;SDS011;25972;51.854;4.534;2023-07-13T01:26:24;9.57;;;1.98;;
40252;SDS011;25972;51.854;4.534;2023-07-13T01:28:50;13.77;;;1.98;;
40252;SDS011;25972;51.854;4.534;2023-07-13T01:31:16;3.85;;;1.27;;
40252;SDS011;25972;51.854;4.534;2023-07-13T01:33:42;10.50;;;2.03;;
40252;SDS011;25972;51.854;4.534;2023-07-13T01:36:09;6.47;;;1.60;;
40252;SDS011;25972;51.854;4.534;2023-07-13T01:38:38;9.63;;;1.77;;
40252;SDS011;25972;51.854;4.534;2023-07-13T01:41:04;14.98;;;2.25;;
40252;SDS011;25972;51.854;4.534;2023-07-13T01:43:30;8.75;;;2.00;;
40252;SDS011;25972;51.854;4.534;2023-07-13T01:45:58;13.82;;;2.22;;
40252;SDS011;25972;51.854;4.534;2023-07-13T01:48:24;6.90;;;1.70;;
40252;SDS011;25972;51.854;4.534;2023-07-13T01:50:50;11.77;;;2.47;;
40252;SDS011;25972;51.854;4.534;2023-07-13T01:53:16;4.97;;;1.50;;
40252;SDS011;25972;51.854;4.534;2023-07-13T01:55:43;10.60;;;1.40;;
40252;SDS011;25972;51.854;4.534;2023-07-13T01:58:09;9.20;;;1.60;;
40252;SDS011;25972;51.854;4.534;2023-07-13T02:00:36;6.68;;;1.60;;
40252;SDS011;25972;51.854;4.534;2023-07-13T02:03:01;9.38;;;1.75;;
40252;SDS011;25972;51.854;4.534;2023-07-13T02:05:27;11.20;;;1.60;;
40252;SDS011;25972;51.854;4.534;2023-07-13T02:07:54;6.82;;;1.52;;
40252;SDS011;25972;51.854;4.534;2023-07-13T02:10:20;4.25;;;1.23;;
40252;SDS011;25972;51.854;4.534;2023-07-13T02:12:48;6.03;;;1.48;;
40252;SDS011;25972;51.854;4.534;2023-07-13T02:15:16;5.47;;;1.50;;
40252;SDS011;25972;51.854;4.534;2023-07-13T02:17:42;5.65;;;1.40;;
40252;SDS011;25972;51.854;4.534;2023-07-13T02:20:08;6.82;;;1.33;;
40252;SDS011;25972;51.854;4.534;2023-07-13T02:22:35;8.73;;;1.90;;
40252;SDS011;25972;51.854;4.534;2023-07-13T02:25:01;12.88;;;2.40;;
40252;SDS011;25972;51.854;4.534;2023-07-13T02:27:27;7.53;;;1.42;;
40252;SDS011;25972;51.854;4.534;2023-07-13T02:29:55;12.05;;;2.00;;
40252;SDS011;25972;51.854;4.534;2023-07-13T02:32:21;14.30;;;2.00;;
40252;SDS011;25972;51.854;4.534;2023-07-13T02:34:47;9.95;;;2.05;;
40252;SDS011;25972;51.854;4.534;2023-07-13T02:37:13;14.45;;;2.42;;
40252;SDS011;25972;51.854;4.534;2023-07-13T02:39:39;10.15;;;1.80;;
40252;SDS011;25972;51.854;4.534;2023-07-13T02:42:05;12.00;;;2.60;;
40252;SDS011;25972;51.854;4.534;2023-07-13T02:44:32;8.80;;;2.08;;
40252;SDS011;25972;51.854;4.534;2023-07-13T02:46:59;12.48;;;2.30;;
40252;SDS011;25972;51.854;4.534;2023-07-13T02:49:25;13.18;;;2.30;;
40252;SDS011;25972;51.854;4.534;2023-07-13T02:51:51;15.35;;;2.20;;
40252;SDS011;25972;51.854;4.534;2023-07-13T02:54:17;10.90;;;2.10;;
40252;SDS011;25972;51.854;4.534;2023-07-13T02:56:43;9.82;;;2.08;;
40252;SDS011;25972;51.854;4.534;2023-07-13T02:59:10;12.55;;;2.38;;
40252;SDS011;25972;51.854;4.534;2023-07-13T03:01:36;9.07;;;2.30;;
40252;SDS011;25972;51.854;4.534;2023-07-13T03:04:03;9.05;;;2.40;;
40252;SDS011;25972;51.854;4.534;2023-07-13T03:06:33;11.02;;;2.45;;
40252;SDS011;25972;51.854;4.534;2023-07-13T03:08:59;12.02;;;2.42;;
40252;SDS011;25972;51.854;4.534;2023-07-13T03:11:28;12.35;;;2.40;;
40252;SDS011;25972;51.854;4.534;2023-07-13T03:14:14;9.95;;;2.17;;
40252;SDS011;25972;51.854;4.534;2023-07-13T03:16:41;14.60;;;2.65;;
40252;SDS011;25972;51.854;4.534;2023-07-13T03:19:08;10.82;;;2.00;;
40252;SDS011;25972;51.854;4.534;2023-07-13T03:21:34;12.75;;;2.38;;
40252;SDS011;25972;51.854;4.534;2023-07-13T03:24:01;13.90;;;2.60;;
40252;SDS011;25972;51.854;4.534;2023-07-13T03:26:27;15.50;;;2.53;;
40252;SDS011;25972;51.854;4.534;2023-07-13T03:28:53;14.85;;;2.65;;
40252;SDS011;25972;51.854;4.534;2023-07-13T03:31:24;10.35;;;2.90;;
40252;SDS011;25972;51.854;4.534;2023-07-13T03:33:51;12.60;;;2.53;;
40252;SDS011;25972;51.854;4.534;2023-07-13T03:36:19;12.88;;;2.75;;
40252;SDS011;25972;51.854;4.534;2023-07-13T03:38:48;14.38;;;2.70;;
40252;SDS011;25972;51.854;4.534;2023-07-13T03:41:19;8.20;;;2.40;;
40252;SDS011;25972;51.854;4.534;2023-07-13T03:43:47;14.60;;;2.55;;
40252;SDS011;25972;51.854;4.534;2023-07-13T03:46:15;12.25;;;2.92;;
40252;SDS011;25972;51.854;4.534;2023-07-13T03:48:43;9.88;;;2.35;;
40252;SDS011;25972;51.854;4.534;2023-07-13T03:51:11;15.63;;;2.83;;
40252;SDS011;25972;51.854;4.534;2023-07-13T03:53:41;14.55;;;2.60;;
40252;SDS011;25972;51.854;4.534;2023-07-13T03:56:10;12.43;;;2.65;;
40252;SDS011;25972;51.854;4.534;2023-07-13T03:58:37;13.73;;;3.15;;
40252;SDS011;25972;51.854;4.534;2023-07-13T04:01:16;12.27;;;2.70;;
40252;SDS011;25972;51.854;4.534;2023-07-13T04:03:44;11.90;;;2.42;;
40252;SDS011;25972;51.854;4.534;2023-07-13T04:06:13;13.45;;;2.55;;
40252;SDS011;25972;51.854;4.534;2023-07-13T04:08:48;10.27;;;2.97;;
40252;SDS011;25972;51.854;4.534;2023-07-13T04:11:15;15.20;;;3.20;;
40252;SDS011;25972;51.854;4.534;2023-07-13T04:13:42;14.07;;;2.80;;
40252;SDS011;25972;51.854;4.534;2023-07-13T04:16:08;12.25;;;2.60;;
40252;SDS011;25972;51.854;4.534;2023-07-13T04:18:34;15.55;;;2.60;;
40252;SDS011;25972;51.854;4.534;2023-07-13T04:21:00;12.73;;;3.08;;
40252;SDS011;25972;51.854;4.534;2023-07-13T04:23:25;10.90;;;2.83;;
40252;SDS011;25972;51.854;4.534;2023-07-13T04:25:53;11.63;;;2.70;;
40252;SDS011;25972;51.854;4.534;2023-07-13T04:28:19;14.88;;;2.55;;
40252;SDS011;25972;51.854;4.534;2023-07-13T04:30:46;9.52;;;2.72;;
40252;SDS011;25972;51.854;4.534;2023-07-13T04:33:12;13.98;;;2.92;;
40252;SDS011;25972;51.854;4.534;2023-07-13T04:35:38;6.07;;;2.33;;
40252;SDS011;25972;51.854;4.534;2023-07-13T04:38:04;11.90;;;2.70;;
40252;SDS011;25972;51.854;4.534;2023-07-13T04:40:30;15.43;;;2.97;;
40252;SDS011;25972;51.854;4.534;2023-07-13T04:42:57;17.73;;;2.80;;
40252;SDS011;25972;51.854;4.534;2023-07-13T04:45:23;10.40;;;2.63;;
40252;SDS011;25972;51.854;4.534;2023-07-13T04:47:49;10.23;;;2.45;;
40252;SDS011;25972;51.854;4.534;2023-07-13T04:50:15;11.88;;;2.70;;
40252;SDS011;25972;51.854;4.534;2023-07-13T04:52:46;11.38;;;2.50;;
40252;SDS011;25972;51.854;4.534;2023-07-13T04:55:12;11.75;;;2.90;;
40252;SDS011;25972;51.854;4.534;2023-07-13T04:57:39;14.55;;;2.97;;
40252;SDS011;25972;51.854;4.534;2023-07-13T05:00:07;12.90;;;2.95;;
40252;SDS011;25972;51.854;4.534;2023-07-13T05:02:34;16.88;;;3.10;;
40252;SDS011;25972;51.854;4.534;2023-07-13T05:05:00;14.63;;;3.28;;
40252;SDS011;25972;51.854;4.534;2023-07-13T05:07:26;11.75;;;2.75;;
40252;SDS011;25972;51.854;4.534;2023-07-13T05:09:52;13.80;;;3.75;;
40252;SDS011;25972;51.854;4.534;2023-07-13T05:12:18;11.00;;;2.70;;
40252;SDS011;25972;51.854;4.534;2023-07-13T05:14:44;17.48;;;2.80;;
40252;SDS011;25972;51.854;4.534;2023-07-13T05:17:12;14.80;;;2.70;;
40252;SDS011;25972;51.854;4.534;2023-07-13T05:19:38;19.50;;;3.08;;
40252;SDS011;25972;51.854;4.534;2023-07-13T05:22:04;13.05;;;3.38;;
40252;SDS011;25972;51.854;4.534;2023-07-13T05:24:30;16.73;;;3.13;;
40252;SDS011;25972;51.854;4.534;2023-07-13T05:26:56;12.27;;;2.47;;
40252;SDS011;25972;51.854;4.534;2023-07-13T05:29:22;14.27;;;2.55;;
40252;SDS011;25972;51.854;4.534;2023-07-13T05:31:48;9.45;;;2.35;;
40252;SDS011;25972;51.854;4.534;2023-07-13T05:34:16;14.05;;;3.05;;
40252;SDS011;25972;51.854;4.534;2023-07-13T05:36:42;11.55;;;2.70;;
40252;SDS011;25972;51.854;4.534;2023-07-13T05:39:08;13.80;;;3.20;;
40252;SDS011;25972;51.854;4.534;2023-07-13T05:41:35;14.52;;;3.15;;
40252;SDS011;25972;51.854;4.534;2023-07-13T05:44:01;11.18;;;3.22;;
40252;SDS011;25972;51.854;4.534;2023-07-13T05:46:27;11.02;;;2.50;;
40252;SDS011;25972;51.854;4.534;2023-07-13T05:48:53;11.98;;;1.90;;
40252;SDS011;25972;51.854;4.534;2023-07-13T05:51:20;13.55;;;2.92;;
40252;SDS011;25972;51.854;4.534;2023-07-13T05:53:46;10.25;;;2.42;;
40252;SDS011;25972;51.854;4.534;2023-07-13T05:56:12;15.88;;;2.22;;
40252;SDS011;25972;51.854;4.534;2023-07-13T05:58:38;10.52;;;3.05;;
40252;SDS011;25972;51.854;4.534;2023-07-13T06:01:05;10.18;;;2.83;;
40252;SDS011;25972;51.854;4.534;2023-07-13T06:03:32;14.73;;;3.53;;
40252;SDS011;25972;51.854;4.534;2023-07-13T06:05:59;14.55;;;3.38;;
40252;SDS011;25972;51.854;4.534;2023-07-13T06:08:26;13.35;;;3.70;;
40252;SDS011;25972;51.854;4.534;2023-07-13T06:10:53;16.02;;;3.33;;
40252;SDS011;25972;51.854;4.534;2023-07-13T06:13:19;10.45;;;3.53;;
40252;SDS011;25972;51.854;4.534;2023-07-13T06:15:47;11.55;;;3.50;;
40252;SDS011;25972;51.854;4.534;2023-07-13T06:18:14;16.48;;;2.92;;
40252;SDS011;25972;51.854;4.534;2023-07-13T06:20:40;13.35;;;2.90;;
40252;SDS011;25972;51.854;4.534;2023-07-13T06:23:06;9.88;;;3.40;;
40252;SDS011;25972;51.854;4.534;2023-07-13T06:25:33;11.35;;;3.10;;
40252;SDS011;25972;51.854;4.534;2023-07-13T06:27:59;16.02;;;3.00;;
40252;SDS011;25972;51.854;4.534;2023-07-13T06:30:25;15.07;;;3.05;;
40252;SDS011;25972;51.854;4.534;2023-07-13T06:32:51;19.55;;;2.60;;
40252;SDS011;25972;51.854;4.534;2023-07-13T06:35:18;18.67;;;4.10;;
40252;SDS011;25972;51.854;4.534;2023-07-13T06:37:43;11.50;;;3.05;;
40252;SDS011;25972;51.854;4.534;2023-07-13T06:40:10;15.18;;;3.00;;
40252;SDS011;25972;51.854;4.534;2023-07-13T06:42:37;11.30;;;3.17;;
40252;SDS011;25972;51.854;4.534;2023-07-13T06:45:04;9.40;;;2.63;;
40252;SDS011;25972;51.854;4.534;2023-07-13T06:47:31;14.05;;;2.70;;
40252;SDS011;25972;51.854;4.534;2023-07-13T06:49:57;7.32;;;2.40;;
40252;SDS011;25972;51.854;4.534;2023-07-13T06:52:23;14.50;;;2.67;;
40252;SDS011;25972;51.854;4.534;2023-07-13T06:54:49;8.57;;;1.58;;
40252;SDS011;25972;51.854;4.534;2023-07-13T06:57:15;11.05;;;2.83;;
40252;SDS011;25972;51.854;4.534;2023-07-13T06:59:42;5.72;;;2.15;;
40252;SDS011;25972;51.854;4.534;2023-07-13T07:02:08;9.20;;;2.28;;
40252;SDS011;25972;51.854;4.534;2023-07-13T07:04:35;8.68;;;1.95;;
40252;SDS011;25972;51.854;4.534;2023-07-13T07:07:01;12.60;;;2.30;;
40252;SDS011;25972;51.854;4.534;2023-07-13T07:09:27;9.75;;;1.83;;
40252;SDS011;25972;51.854;4.534;2023-07-13T07:11:55;5.80;;;2.20;;
40252;SDS011;25972;51.854;4.534;2023-07-13T07:14:21;7.45;;;2.25;;
40252;SDS011;25972;51.854;4.534;2023-07-13T07:16:49;13.32;;;2.60;;
40252;SDS011;25972;51.854;4.534;2023-07-13T07:19:15;8.95;;;2.13;;
40252;SDS011;25972;51.854;4.534;2023-07-13T07:21:41;6.95;;;2.00;;
40252;SDS011;25972;51.854;4.534;2023-07-13T07:24:07;6.20;;;1.75;;
40252;SDS011;25972;51.854;4.534;2023-07-13T07:26:33;3.75;;;1.17;;
40252;SDS011;25972;51.854;4.534;2023-07-13T07:29:00;3.00;;;1.50;;
40252;SDS011;25972;51.854;4.534;2023-07-13T07:31:26;4.07;;;1.60;;
40252;SDS011;25972;51.854;4.534;2023-07-13T07:33:53;6.80;;;1.58;;
40252;SDS011;25972;51.854;4.534;2023-07-13T07:36:19;4.75;;;1.67;;
40252;SDS011;25972;51.854;4.534;2023-07-13T07:38:45;4.30;;;1.45;;
40252;SDS011;25972;51.854;4.534;2023-07-13T07:41:12;5.93;;;1.90;;
40252;SDS011;25972;51.854;4.534;2023-07-13T07:43:38;5.13;;;1.77;;
40252;SDS011;25972;51.854;4.534;2023-07-13T07:46:04;8.02;;;1.70;;
40252;SDS011;25972;51.854;4.534;2023-07-13T07:48:31;9.57;;;2.25;;
40252;SDS011;25972;51.854;4.534;2023-07-13T07:50:59;4.45;;;1.88;;
40252;SDS011;25972;51.854;4.534;2023-07-13T07:53:25;9.82;;;1.85;;
40252;SDS011;25972;51.854;4.534;2023-07-13T07:55:51;8.70;;;2.10;;
40252;SDS011;25972;51.854;4.534;2023-07-13T07:58:17;5.25;;;2.03;;
40252;SDS011;25972;51.854;4.534;2023-07-13T08:00:43;4.65;;;2.08;;
40252;SDS011;25972;51.854;4.534;2023-07-13T08:03:09;6.43;;;2.00;;
40252;SDS011;25972;51.854;4.534;2023-07-13T08:05:35;6.60;;;2.22;;
40252;SDS011;25972;51.854;4.534;2023-07-13T08:08:03;10.10;;;1.92;;
40252;SDS011;25972;51.854;4.534;2023-07-13T08:10:30;6.82;;;2.20;;
40252;SDS011;25972;51.854;4.534;2023-07-13T08:12:56;9.68;;;2.30;;
40252;SDS011;25972;51.854;4.534;2023-07-13T08:15:21;4.28;;;1.88;;
40252;SDS011;25972;51.854;4.534;2023-07-13T08:17:48;7.63;;;2.05;;
40252;SDS011;25972;51.854;4.534;2023-07-13T08:20:14;11.50;;;2.25;;
40252;SDS011;25972;51.854;4.534;2023-07-13T08:22:41;7.82;;;1.98;;
40252;SDS011;25972;51.854;4.534;2023-07-13T08:25:09;6.75;;;1.90;;
40252;SDS011;25972;51.854;4.534;2023-07-13T08:27:35;7.57;;;2.15;;
40252;SDS011;25972;51.854;4.534;2023-07-13T08:30:01;6.53;;;1.98;;
40252;SDS011;25972;51.854;4.534;2023-07-13T08:32:27;6.82;;;2.22;;
40252;SDS011;25972;51.854;4.534;2023-07-13T08:34:53;8.52;;;2.10;;
40252;SDS011;25972;51.854;4.534;2023-07-13T08:37:19;9.48;;;2.25;;
40252;SDS011;25972;51.854;4.534;2023-07-13T08:39:45;6.80;;;1.85;;
40252;SDS011;25972;51.854;4.534;2023-07-13T08:45:00;7.38;;;1.95;;
40252;SDS011;25972;51.854;4.534;2023-07-13T08:47:38;4.68;;;1.70;;
40252;SDS011;25972;51.854;4.534;2023-07-13T08:50:09;4.55;;;1.90;;
40252;SDS011;25972;51.854;4.534;2023-07-13T08:52:39;5.43;;;1.77;;
40252;SDS011;25972;51.854;4.534;2023-07-13T08:55:09;6.20;;;1.65;;
40252;SDS011;25972;51.854;4.534;2023-07-13T08:57:42;9.93;;;2.20;;
40252;SDS011;25972;51.854;4.534;2023-07-13T09:00:09;7.32;;;2.10;;
40252;SDS011;25972;51.854;4.534;2023-07-13T09:02:39;3.60;;;1.63;;
40252;SDS011;25972;51.854;4.534;2023-07-13T09:05:10;7.50;;;2.67;;
40252;SDS011;25972;51.854;4.534;2023-07-13T09:07:41;9.98;;;2.00;;
40252;SDS011;25972;51.854;4.534;2023-07-13T09:10:21;8.85;;;1.85;;
40252;SDS011;25972;51.854;4.534;2023-07-13T09:12:57;4.68;;;1.70;;
40252;SDS011;25972;51.854;4.534;2023-07-13T09:15:32;5.07;;;1.80;;
40252;SDS011;25972;51.854;4.534;2023-07-13T09:18:03;9.65;;;2.17;;
40252;SDS011;25972;51.854;4.534;2023-07-13T09:20:35;6.38;;;1.70;;
40252;SDS011;25972;51.854;4.534;2023-07-13T09:23:06;5.65;;;1.95;;
40252;SDS011;25972;51.854;4.534;2023-07-13T09:25:38;6.68;;;1.90;;
40252;SDS011;25972;51.854;4.534;2023-07-13T09:28:10;4.35;;;1.67;;
40252;SDS011;25972;51.854;4.534;2023-07-13T09:30:40;8.35;;;2.03;;
40252;SDS011;25972;51.854;4.534;2023-07-13T09:33:11;11.60;;;2.10;;
40252;SDS011;25972;51.854;4.534;2023-07-13T09:35:39;7.82;;;1.83;;
40252;SDS011;25972;51.854;4.534;2023-07-13T09:38:10;8.88;;;2.00;;
40252;SDS011;25972;51.854;4.534;2023-07-13T09:40:40;5.05;;;1.58;;
40252;SDS011;25972;51.854;4.534;2023-07-13T09:43:22;6.05;;;1.90;;
40252;SDS011;25972;51.854;4.534;2023-07-13T09:45:48;6.18;;;1.65;;
40252;SDS011;25972;51.854;4.534;2023-07-13T09:48:15;4.78;;;1.60;;
40252;SDS011;25972;51.854;4.534;2023-07-13T09:50:42;5.30;;;1.70;;
40252;SDS011;25972;51.854;4.534;2023-07-13T09:53:13;4.13;;;1.35;;
40252;SDS011;25972;51.854;4.534;2023-07-13T09:55:40;4.10;;;1.73;;
40252;SDS011;25972;51.854;4.534;2023-07-13T09:58:09;4.18;;;1.58;;
40252;SDS011;25972;51.854;4.534;2023-07-13T10:00:38;5.07;;;1.67;;
40252;SDS011;25972;51.854;4.534;2023-07-13T10:03:14;2.85;;;1.75;;
40252;SDS011;25972;51.854;4.534;2023-07-13T10:05:43;5.85;;;1.92;;
40252;SDS011;25972;51.854;4.534;2023-07-13T10:08:17;3.22;;;1.48;;
40252;SDS011;25972;51.854;4.534;2023-07-13T10:10:46;9.30;;;2.00;;
40252;SDS011;25972;51.854;4.534;2023-07-13T10:13:23;6.95;;;1.63;;
40252;SDS011;25972;51.854;4.534;2023-07-13T10:16:03;4.18;;;1.70;;
40252;SDS011;25972;51.854;4.534;2023-07-13T10:18:38;4.43;;;1.52;;
40252;SDS011;25972;51.854;4.534;2023-07-13T10:21:11;4.93;;;1.60;;
40252;SDS011;25972;51.854;4.534;2023-07-13T10:23:39;4.63;;;1.77;;
40252;SDS011;25972;51.854;4.534;2023-07-13T10:26:12;6.45;;;1.85;;
40252;SDS011;25972;51.854;4.534;2023-07-13T10:28:42;6.95;;;1.83;;
40252;SDS011;25972;51.854;4.534;2023-07-13T10:31:14;8.35;;;1.40;;
40252;SDS011;25972;51.854;4.534;2023-07-13T10:33:41;4.22;;;1.20;;
40252;SDS011;25972;51.854;4.534;2023-07-13T10:36:12;6.35;;;1.50;;
40252;SDS011;25972;51.854;4.534;2023-07-13T10:41:10;5.80;;;1.77;;
40252;SDS011;25972;51.854;4.534;2023-07-13T10:43:39;4.63;;;1.65;;
40252;SDS011;25972;51.854;4.534;2023-07-13T10:46:08;3.45;;;1.35;;
40252;SDS011;25972;51.854;4.534;2023-07-13T10:48:39;3.80;;;1.50;;
40252;SDS011;25972;51.854;4.534;2023-07-13T10:51:07;5.53;;;1.80;;
40252;SDS011;25972;51.854;4.534;2023-07-13T10:53:37;5.50;;;1.80;;
40252;SDS011;25972;51.854;4.534;2023-07-13T10:56:05;5.43;;;1.90;;
40252;SDS011;25972;51.854;4.534;2023-07-13T10:58:44;4.40;;;1.80;;
40252;SDS011;25972;51.854;4.534;2023-07-13T11:01:12;5.22;;;1.40;;
40252;SDS011;25972;51.854;4.534;2023-07-13T11:03:47;2.78;;;1.70;;
40252;SDS011;25972;51.854;4.534;2023-07-13T11:06:16;4.03;;;1.55;;
40252;SDS011;25972;51.854;4.534;2023-07-13T11:08:56;4.10;;;1.42;;
40252;SDS011;25972;51.854;4.534;2023-07-13T11:11:34;6.13;;;1.48;;
40252;SDS011;25972;51.854;4.534;2023-07-13T11:14:04;5.10;;;1.58;;
40252;SDS011;25972;51.854;4.534;2023-07-13T11:16:50;2.45;;;1.38;;
40252;SDS011;25972;51.854;4.534;2023-07-13T11:19:40;2.97;;;1.20;;
40252;SDS011;25972;51.854;4.534;2023-07-13T11:22:11;3.38;;;1.48;;
40252;SDS011;25972;51.854;4.534;2023-07-13T11:24:52;4.30;;;1.40;;
40252;SDS011;25972;51.854;4.534;2023-07-13T11:30:31;6.88;;;2.13;;
40252;SDS011;25972;51.854;4.534;2023-07-13T11:33:09;5.15;;;1.50;;
40252;SDS011;25972;51.854;4.534;2023-07-13T11:35:43;3.15;;;1.30;;
40252;SDS011;25972;51.854;4.534;2023-07-13T11:38:13;5.53;;;1.50;;
40252;SDS011;25972;51.854;4.534;2023-07-13T11:40:43;7.57;;;1.50;;
40252;SDS011;25972;51.854;4.534;2023-07-13T11:43:11;4.40;;;1.58;;
40252;SDS011;25972;51.854;4.534;2023-07-13T11:45:39;4.60;;;1.70;;
40252;SDS011;25972;51.854;4.534;2023-07-13T11:48:05;4.97;;;1.33;;
40252;SDS011;25972;51.854;4.534;2023-07-13T11:50:48;3.67;;;1.42;;
40252;SDS011;25972;51.854;4.534;2023-07-13T11:53:21;1.58;;;1.02;;
40252;SDS011;25972;51.854;4.534;2023-07-13T11:55:48;4.28;;;1.40;;
40252;SDS011;25972;51.854;4.534;2023-07-13T11:58:16;4.18;;;1.40;;
40252;SDS011;25972;51.854;4.534;2023-07-13T12:00:46;2.15;;;1.20;;
40252;SDS011;25972;51.854;4.534;2023-07-13T12:03:13;2.92;;;1.13;;
40252;SDS011;25972;51.854;4.534;2023-07-13T12:05:56;2.00;;;1.15;;
40252;SDS011;25972;51.854;4.534;2023-07-13T12:08:23;3.80;;;1.88;;
40252;SDS011;25972;51.854;4.534;2023-07-13T12:10:56;3.08;;;1.20;;
40252;SDS011;25972;51.854;4.534;2023-07-13T12:13:23;5.05;;;1.50;;
40252;SDS011;25972;51.854;4.534;2023-07-13T12:15:53;4.05;;;1.27;;
40252;SDS011;25972;51.854;4.534;2023-07-13T12:18:20;4.57;;;1.15;;
40252;SDS011;25972;51.854;4.534;2023-07-13T12:20:49;3.58;;;1.33;;
40252;SDS011;25972;51.854;4.534;2023-07-13T12:23:22;3.60;;;1.27;;
40252;SDS011;25972;51.854;4.534;2023-07-13T12:28:20;3.50;;;1.25;;
40252;SDS011;25972;51.854;4.534;2023-07-13T12:30:47;5.20;;;1.40;;
40252;SDS011;25972;51.854;4.534;2023-07-13T12:33:15;4.00;;;1.50;;
40252;SDS011;25972;51.854;4.534;2023-07-13T12:35:42;3.65;;;1.50;;
40252;SDS011;25972;51.854;4.534;2023-07-13T12:38:12;3.85;;;1.40;;
40252;SDS011;25972;51.854;4.534;2023-07-13T12:40:40;3.63;;;1.42;;
40252;SDS011;25972;51.854;4.534;2023-07-13T12:43:10;2.40;;;1.13;;
40252;SDS011;25972;51.854;4.534;2023-07-13T12:45:37;2.72;;;0.85;;
40252;SDS011;25972;51.854;4.534;2023-07-13T12:48:05;2.85;;;1.50;;
40252;SDS011;25972;51.854;4.534;2023-07-13T12:50:39;3.10;;;1.30;;
40252;SDS011;25972;51.854;4.534;2023-07-13T12:53:12;1.38;;;1.10;;
40252;SDS011;25972;51.854;4.534;2023-07-13T12:58:09;4.07;;;1.17;;
40252;SDS011;25972;51.854;4.534;2023-07-13T13:00:47;2.72;;;1.10;;
40252;SDS011;25972;51.854;4.534;2023-07-13T13:03:16;3.75;;;1.20;;
40252;SDS011;25972;51.854;4.534;2023-07-13T13:05:49;5.00;;;1.35;;
40252;SDS011;25972;51.854;4.534;2023-07-13T13:08:22;2.67;;;1.17;;
40252;SDS011;25972;51.854;4.534;2023-07-13T13:10:50;1.92;;;1.10;;
40252;SDS011;25972;51.854;4.534;2023-07-13T13:13:16;5.95;;;1.15;;
40252;SDS011;25972;51.854;4.534;2023-07-13T13:15:42;3.72;;;1.10;;
40252;SDS011;25972;51.854;4.534;2023-07-13T13:18:13;1.65;;;1.40;;
40252;SDS011;25972;51.854;4.534;2023-07-13T13:20:41;3.08;;;1.33;;
40252;SDS011;25972;51.854;4.534;2023-07-13T13:23:08;2.80;;;1.10;;
40252;SDS011;25972;51.854;4.534;2023-07-13T13:25:36;4.70;;;1.25;;
40252;SDS011;25972;51.854;4.534;2023-07-13T13:28:04;1.80;;;1.02;;
40252;SDS011;25972;51.854;4.534;2023-07-13T13:30:30;3.42;;;1.50;;
40252;SDS011;25972;51.854;4.534;2023-07-13T13:32:56;4.00;;;1.17;;
40252;SDS011;25972;51.854;4.534;2023-07-13T13:35:22;4.25;;;1.40;;
40252;SDS011;25972;51.854;4.534;2023-07-13T13:37:48;1.73;;;0.82;;
40252;SDS011;25972;51.854;4.534;2023-07-13T13:40:16;4.18;;;1.25;;
40252;SDS011;25972;51.854;4.534;2023-07-13T13:42:44;3.00;;;1.23;;
40252;SDS011;25972;51.854;4.534;2023-07-13T13:45:12;4.35;;;1.20;;
40252;SDS011;25972;51.854;4.534;2023-07-13T13:47:38;1.70;;;0.85;;
40252;SDS011;25972;51.854;4.534;2023-07-13T13:50:12;2.97;;;1.20;;
40252;SDS011;25972;51.854;4.534;2023-07-13T13:52:39;1.80;;;1.17;;
40252;SDS011;25972;51.854;4.534;2023-07-13T13:55:11;1.65;;;1.00;;
40252;SDS011;25972;51.854;4.534;2023-07-13T13:57:38;3.47;;;1.25;;
40252;SDS011;25972;51.854;4.534;2023-07-13T14:00:04;2.45;;;1.23;;
40252;SDS011;25972;51.854;4.534;2023-07-13T14:02:33;3.03;;;1.25;;
40252;SDS011;25972;51.854;4.534;2023-07-13T14:05:00;2.55;;;1.27;;
40252;SDS011;25972;51.854;4.534;2023-07-13T14:07:28;6.88;;;1.45;;
40252;SDS011;25972;51.854;4.534;2023-07-13T14:09:58;1.85;;;0.93;;
40252;SDS011;25972;51.854;4.534;2023-07-13T14:12:25;4.93;;;1.38;;
40252;SDS011;25972;51.854;4.534;2023-07-13T14:14:53;2.28;;;1.10;;
40252;SDS011;25972;51.854;4.534;2023-07-13T14:17:21;3.67;;;1.25;;
40252;SDS011;25972;51.854;4.534;2023-07-13T14:19:50;2.63;;;1.05;;
40252;SDS011;25972;51.854;4.534;2023-07-13T14:22:18;1.75;;;1.23;;
40252;SDS011;25972;51.854;4.534;2023-07-13T14:24:44;3.08;;;1.25;;
40252;SDS011;25972;51.854;4.534;2023-07-13T14:27:10;3.67;;;1.30;;
40252;SDS011;25972;51.854;4.534;2023-07-13T14:29:37;3.67;;;1.23;;
40252;SDS011;25972;51.854;4.534;2023-07-13T14:32:04;1.65;;;1.10;;
40252;SDS011;25972;51.854;4.534;2023-07-13T14:34:31;3.08;;;1.08;;
40252;SDS011;25972;51.854;4.534;2023-07-13T14:36:58;2.05;;;1.08;;
40252;SDS011;25972;51.854;4.534;2023-07-13T14:39:24;0.60;;;0.60;;
40252;SDS011;25972;51.854;4.534;2023-07-13T14:41:51;3.65;;;1.00;;
40252;SDS011;25972;51.854;4.534;2023-07-13T14:44:20;1.88;;;0.82;;
40252;SDS011;25972;51.854;4.534;2023-07-13T14:46:49;4.50;;;1.20;;
40252;SDS011;25972;51.854;4.534;2023-07-13T14:49:21;1.92;;;0.90;;
40252;SDS011;25972;51.854;4.534;2023-07-13T14:51:50;3.00;;;1.08;;
40252;SDS011;25972;51.854;4.534;2023-07-13T14:54:18;3.40;;;1.17;;
40252;SDS011;25972;51.854;4.534;2023-07-13T14:56:44;2.67;;;1.20;;
40252;SDS011;25972;51.854;4.534;2023-07-13T14:59:10;3.15;;;1.45;;
40252;SDS011;25972;51.854;4.534;2023-07-13T15:01:37;2.30;;;1.00;;